createdAt,value
2022-08-20T00:01:16.235Z,99634.66
2022-08-20T00:03:44.885Z,99629.47
2022-08-20T00:06:23.773Z,99634.09
2022-08-20T00:08:51.556Z,99634.66
2022-08-20T00:11:23.719Z,99636.84
2022-08-20T00:13:57.466Z,99640.03
2022-08-20T00:16:27.486Z,99646.00
2022-08-20T00:18:54.566Z,99643.84
2022-08-20T00:21:23.306Z,99635.97
2022-08-20T00:23:55.192Z,99650.34
2022-08-20T00:26:23.601Z,99655.75
2022-08-20T00:28:51.286Z,99651.94
2022-08-20T00:31:21.075Z,99655.75
2022-08-20T00:33:48.863Z,99642.72
2022-08-20T00:36:17.972Z,99658.19
2022-08-20T00:38:47.034Z,99664.69
2022-08-20T00:41:26.999Z,99658.44
2022-08-20T00:44:21.907Z,99660.59
2022-08-20T00:46:50.073Z,99659.25
2022-08-20T00:49:28.477Z,99655.69
2022-08-20T00:52:19.247Z,99663.00
2022-08-20T00:54:56.713Z,99665.44
2022-08-20T00:58:00.003Z,99672.22
2022-08-20T01:00:32.196Z,99685.50
2022-08-20T01:03:00.943Z,99674.34
2022-08-20T01:05:29.784Z,99681.94
2022-08-20T01:07:58.326Z,99687.63
2022-08-20T01:10:29.651Z,99677.34
2022-08-20T01:12:59.180Z,99679.47
2022-08-20T01:15:31.719Z,99677.56
2022-08-20T01:18:01.853Z,99685.38
2022-08-20T01:20:39.421Z,99683.19
2022-08-20T01:23:27.596Z,99692.44
2022-08-20T01:26:08.594Z,99685.31
2022-08-20T01:28:54.630Z,99683.69
2022-08-20T01:31:27.981Z,99692.59
2022-08-20T01:33:57.207Z,99692.84
2022-08-20T01:36:37.933Z,99689.59
2022-08-20T01:39:10.994Z,99685.22
2022-08-20T01:42:02.321Z,99691.72
2022-08-20T01:44:31.006Z,99696.84
2022-08-20T01:47:08.400Z,99681.88
2022-08-20T01:49:36.124Z,99694.84
2022-08-20T01:52:09.749Z,99694.25
2022-08-20T01:54:37.184Z,99688.28
2022-08-20T01:57:12.123Z,99683.41
2022-08-20T01:59:40.150Z,99686.19
2022-08-20T02:02:08.764Z,99691.91
2022-08-20T02:04:36.528Z,99702.50
2022-08-20T02:07:06.189Z,99696.53
2022-08-20T02:09:39.169Z,99708.44
2022-08-20T02:12:09.321Z,99715.50
2022-08-20T02:14:42.223Z,99710.06
2022-08-20T02:17:11.604Z,99713.81
2022-08-20T02:19:48.795Z,99722.22
2022-08-20T02:22:50.186Z,99712.47
2022-08-20T02:25:20.431Z,99718.16
2022-08-20T02:27:53.041Z,99718.22
2022-08-20T02:30:33.922Z,99716.59
2022-08-20T02:33:03.986Z,99721.53
2022-08-20T02:35:32.650Z,99713.44
2022-08-20T02:38:01.589Z,99717.50
2022-08-20T02:40:30.535Z,99715.06
2022-08-20T02:43:00.703Z,99711.75
2022-08-20T02:45:30.079Z,99714.53
2022-08-20T02:47:58.852Z,99718.88
2022-08-20T02:50:27.222Z,99716.72
2022-08-20T02:52:54.688Z,99718.63
2022-08-20T02:55:27.644Z,99723.78
2022-08-20T02:57:59.003Z,99716.75
2022-08-20T03:00:37.724Z,99721.63
2022-08-20T03:03:10.480Z,99724.88
2022-08-20T03:05:41.218Z,99723.69
2022-08-20T03:08:09.866Z,99725.00
2022-08-20T03:10:38.953Z,99722.03
2022-08-20T03:13:11.173Z,99722.56
2022-08-20T03:15:41.236Z,99723.88
2022-08-20T03:18:08.672Z,99727.38
2022-08-20T03:20:35.793Z,99723.59
2022-08-20T03:23:03.298Z,99720.34
2022-08-20T03:25:30.767Z,99719.78
2022-08-20T03:27:58.362Z,99716.59
2022-08-20T03:30:28.018Z,99715.97
2022-08-20T03:32:55.634Z,99714.09
2022-08-20T03:35:25.399Z,99712.97
2022-08-20T03:37:53.329Z,99714.09
2022-08-20T03:40:31.494Z,99723.28
2022-08-20T03:42:58.706Z,99705.41
2022-08-20T03:45:27.087Z,99703.03
2022-08-20T03:47:56.166Z,99703.03
2022-08-20T03:50:27.130Z,99702.50
2022-08-20T03:52:55.106Z,99711.47
2022-08-20T03:55:24.119Z,99710.13
2022-08-20T03:57:56.783Z,99707.72
2022-08-20T04:00:33.428Z,99712.88
2022-08-20T04:03:00.884Z,99709.13
2022-08-20T04:05:31.183Z,99702.06
2022-08-20T04:08:03.475Z,99709.63
2022-08-20T04:10:31.905Z,99711.84
2022-08-20T04:12:58.875Z,99712.34
2022-08-20T04:15:27.147Z,99709.13
2022-08-20T04:17:54.325Z,99704.78
2022-08-20T04:20:25.862Z,99708.00
2022-08-20T04:22:58.825Z,99707.72
2022-08-20T04:25:35.945Z,99707.16
2022-08-20T04:28:07.714Z,99708.44
2022-08-20T04:30:34.861Z,99708.09
2022-08-20T04:33:02.384Z,99711.59
2022-08-20T04:35:31.170Z,99709.59
2022-08-20T04:38:08.401Z,99709.28
2022-08-20T04:40:55.749Z,99705.94
2022-08-20T04:43:27.811Z,99710.25
2022-08-20T04:45:57.537Z,99719.72
2022-08-20T04:48:27.484Z,99729.16
2022-08-20T04:50:55.832Z,99736.78
2022-08-20T04:53:27.940Z,99729.22
2022-08-20T04:55:59.950Z,99742.75
2022-08-20T04:58:33.580Z,99737.34
2022-08-20T05:01:10.425Z,99733.25
2022-08-20T05:03:39.918Z,99733.56
2022-08-20T05:06:09.196Z,99726.56
2022-08-20T05:08:38.510Z,99731.44
2022-08-20T05:11:34.673Z,99736.63
2022-08-20T05:13:53.973Z,99734.47
2022-08-20T05:16:21.666Z,99738.81
2022-08-20T05:18:52.835Z,99737.47
2022-08-20T05:21:21.118Z,99745.09
2022-08-20T05:23:49.226Z,99751.91
2022-08-20T05:26:19.970Z,99753.78
2022-08-20T05:28:57.509Z,99748.38
2022-08-20T05:31:32.693Z,99753.84
2022-08-20T05:34:10.395Z,99763.06
2022-08-20T05:36:43.519Z,99768.75
2022-08-20T05:39:11.536Z,99773.44
2022-08-20T05:41:40.305Z,99776.19
2022-08-20T05:44:13.611Z,99774.34
2022-08-20T05:46:43.428Z,99772.47
2022-08-20T05:49:15.458Z,99777.66
2022-08-20T05:51:43.209Z,99780.97
2022-08-20T05:54:10.948Z,99780.44
2022-08-20T05:56:38.472Z,99783.72
2022-08-20T05:59:08.008Z,99780.75
2022-08-20T06:01:38.646Z,99790.81
2022-08-20T06:04:24.857Z,99784.59
2022-08-20T06:06:56.337Z,99779.25
2022-08-20T06:09:31.127Z,99772.53
2022-08-20T06:12:02.364Z,99780.97
2022-08-20T06:14:29.943Z,99783.47
2022-08-20T06:17:10.128Z,99775.09
2022-08-20T06:19:43.545Z,99781.09
2022-08-20T06:22:19.026Z,99776.22
2022-08-20T06:24:51.983Z,99784.91
2022-08-20T06:27:19.632Z,99792.28
2022-08-20T06:29:47.960Z,99782.50
2022-08-20T06:32:15.063Z,99787.69
2022-08-20T06:34:49.065Z,99788.31
2022-08-20T06:37:23.218Z,99786.63
2022-08-20T06:39:55.365Z,99792.09
2022-08-20T06:42:22.407Z,99789.38
2022-08-20T06:44:50.176Z,99781.50
2022-08-20T06:47:20.183Z,99789.66
2022-08-20T06:49:48.645Z,99790.19
2022-08-20T06:52:17.045Z,99790.50
2022-08-20T06:54:45.744Z,99794.84
2022-08-20T06:57:13.045Z,99800.81
2022-08-20T06:59:40.440Z,99801.41
2022-08-20T07:02:07.761Z,99800.31
2022-08-20T07:04:34.942Z,99803.63
2022-08-20T07:07:02.050Z,99802.00
2022-08-20T07:09:29.041Z,99809.38
2022-08-20T07:11:56.557Z,99802.56
2022-08-20T07:14:23.588Z,99803.69
2022-08-20T07:16:50.606Z,99800.19
2022-08-20T07:19:17.730Z,99800.44
2022-08-20T07:21:44.783Z,99802.66
2022-08-20T07:24:12.520Z,99802.91
2022-08-20T07:26:40.095Z,99805.94
2022-08-20T07:29:07.415Z,99801.56
2022-08-20T07:31:52.724Z,99813.03
2022-08-20T07:34:20.124Z,99812.44
2022-08-20T07:36:48.757Z,99813.25
2022-08-20T07:39:16.759Z,99819.53
2022-08-20T07:41:53.467Z,99823.31
2022-08-20T07:44:29.185Z,99824.97
2022-08-20T07:47:01.285Z,99818.41
2022-08-20T07:49:29.967Z,99821.13
2022-08-20T07:51:56.974Z,99830.38
2022-08-20T07:54:24.226Z,99831.47
2022-08-20T07:56:51.210Z,99840.44
2022-08-20T07:59:18.249Z,99832.00
2022-08-20T08:01:45.288Z,99832.03
2022-08-20T08:04:12.283Z,99837.19
2022-08-20T08:06:40.527Z,99836.41
2022-08-20T08:09:13.106Z,99842.94
2022-08-20T08:11:49.976Z,99835.59
2022-08-20T08:14:25.955Z,99830.16
2022-08-20T08:16:57.231Z,99836.13
2022-08-20T08:19:27.434Z,99837.47
2022-08-20T08:21:57.282Z,99832.06
2022-08-20T08:24:28.466Z,99829.63
2022-08-20T08:26:55.734Z,99827.19
2022-08-20T08:29:23.012Z,99834.00
2022-08-20T08:31:50.053Z,99832.91
2022-08-20T08:34:17.322Z,99828.56
2022-08-20T08:36:44.388Z,99835.38
2022-08-20T08:39:11.393Z,99834.31
2022-08-20T08:41:48.547Z,99832.41
2022-08-20T08:44:23.073Z,99841.63
2022-08-20T08:47:00.358Z,99839.50
2022-08-20T08:49:37.527Z,99841.97
2022-08-20T08:52:27.444Z,99838.97
2022-08-20T08:54:59.490Z,99846.59
2022-08-20T08:57:29.282Z,99841.97
2022-08-20T09:00:19.546Z,99842.50
2022-08-20T09:03:29.858Z,99844.16
2022-08-20T09:06:01.102Z,99834.38
2022-08-20T09:08:37.071Z,99839.81
2022-08-20T09:11:11.317Z,99837.34
2022-08-20T09:13:38.861Z,99834.09
2022-08-20T09:16:06.896Z,99836.00
2022-08-20T09:18:33.901Z,99840.63
2022-08-20T09:21:00.907Z,99837.34
2022-08-20T09:23:27.954Z,99846.91
2022-08-20T09:25:54.966Z,99842.28
2022-08-20T09:28:22.011Z,99839.81
2022-08-20T09:30:51.749Z,99846.34
2022-08-20T09:33:18.982Z,99845.00
2022-08-20T09:35:46.611Z,99843.09
2022-08-20T09:38:13.896Z,99840.91
2022-08-20T09:40:41.162Z,99829.72
2022-08-20T09:43:08.887Z,99830.00
2022-08-20T09:45:36.753Z,99829.72
2022-08-20T09:48:04.400Z,99837.06
2022-08-20T09:50:41.293Z,99827.81
2022-08-20T09:53:09.610Z,99827.28
2022-08-20T09:55:43.819Z,99822.94
2022-08-20T09:58:34.934Z,99825.09
2022-08-20T10:01:13.901Z,99820.47
2022-08-20T10:03:48.670Z,99820.19
2022-08-20T10:06:19.515Z,99824.00
2022-08-20T10:08:47.611Z,99826.97
2022-08-20T10:11:14.848Z,99827.81
2022-08-20T10:13:41.968Z,99825.63
2022-08-20T10:16:09.098Z,99826.69
2022-08-20T10:18:36.740Z,99822.06
2022-08-20T10:21:08.840Z,99829.41
2022-08-20T10:23:35.860Z,99830.75
2022-08-20T10:26:02.882Z,99822.31
2022-08-20T10:28:29.867Z,99825.03
2022-08-20T10:30:56.917Z,99827.78
2022-08-20T10:33:24.058Z,99826.97
2022-08-20T10:35:51.027Z,99825.06
2022-08-20T10:38:21.802Z,99828.88
2022-08-20T10:40:52.554Z,99824.53
2022-08-20T10:43:19.829Z,99817.16
2022-08-20T10:45:47.003Z,99816.88
2022-08-20T10:48:16.132Z,99811.72
2022-08-20T10:50:46.569Z,99811.41
2022-08-20T10:53:13.581Z,99813.28
2022-08-20T10:55:41.116Z,99810.53
2022-08-20T10:58:11.518Z,99802.06
2022-08-20T11:00:39.583Z,99807.47
2022-08-20T11:03:06.641Z,99803.59
2022-08-20T11:05:33.671Z,99799.47
2022-08-20T11:08:03.639Z,99790.41
2022-08-20T11:12:23.603Z,99790.31
2022-08-20T11:14:51.988Z,99787.50
2022-08-20T11:17:37.284Z,99786.63
2022-08-20T11:20:07.004Z,99781.59
2022-08-20T11:22:34.968Z,99785.09
2022-08-20T11:25:02.414Z,99782.84
2022-08-20T11:27:38.986Z,99778.47
2022-08-20T11:30:10.508Z,99781.72
2022-08-20T11:32:37.650Z,99787.66
2022-08-20T11:35:24.376Z,99783.50
2022-08-20T11:37:55.715Z,99785.63
2022-08-20T11:40:23.861Z,99788.88
2022-08-20T11:43:13.096Z,99784.47
2022-08-20T11:45:38.179Z,99787.13
2022-08-20T11:48:05.669Z,99794.16
2022-08-20T11:50:32.746Z,99793.81
2022-08-20T11:53:01.093Z,99787.56
2022-08-20T11:55:30.528Z,99796.28
2022-08-20T11:58:00.432Z,99793.47
2022-08-20T12:00:32.850Z,99788.00
2022-08-20T12:03:09.167Z,99788.25
2022-08-20T12:05:43.059Z,99789.06
2022-08-20T12:08:27.654Z,99782.63
2022-08-20T12:11:02.158Z,99776.13
2022-08-20T12:13:47.870Z,99771.59
2022-08-20T12:16:18.005Z,99775.16
2022-08-20T12:18:45.686Z,99775.59
2022-08-20T12:21:12.717Z,99778.44
2022-08-20T12:23:39.698Z,99775.91
2022-08-20T12:26:06.965Z,99775.00
2022-08-20T12:28:34.217Z,99765.97
2022-08-20T12:31:01.236Z,99773.81
2022-08-20T12:33:28.290Z,99770.78
2022-08-20T12:35:55.317Z,99772.34
2022-08-20T12:38:22.267Z,99769.78
2022-08-20T12:40:49.340Z,99755.66
2022-08-20T12:43:16.294Z,99751.53
2022-08-20T12:45:43.346Z,99756.72
2022-08-20T12:48:13.142Z,99746.56
2022-08-20T12:50:43.335Z,99750.88
2022-08-20T12:53:10.313Z,99757.28
2022-08-20T12:55:37.530Z,99752.47
2022-08-20T12:58:07.604Z,99750.59
2022-08-20T13:00:44.390Z,99750.44
2022-08-20T13:03:15.490Z,99740.34
2022-08-20T13:05:42.457Z,99736.47
2022-08-20T13:08:11.805Z,99732.63
2022-08-20T13:10:45.286Z,99733.00
2022-08-20T13:13:15.320Z,99733.53
2022-08-20T13:15:44.830Z,99734.75
2022-08-20T13:18:11.808Z,99734.88
2022-08-20T13:20:38.801Z,99718.63
2022-08-20T13:23:06.159Z,99721.50
2022-08-20T13:25:33.607Z,99722.50
2022-08-20T13:28:04.302Z,99717.81
2022-08-20T13:30:34.459Z,99729.63
2022-08-20T13:33:02.081Z,99727.78
2022-08-20T13:35:29.830Z,99717.38
2022-08-20T13:37:56.791Z,99715.50
2022-08-20T13:40:23.941Z,99718.25
2022-08-20T13:42:50.897Z,99714.44
2022-08-20T13:45:17.932Z,99720.56
2022-08-20T13:47:45.113Z,99723.56
2022-08-20T13:50:21.425Z,99719.56
2022-08-20T13:52:48.543Z,99711.06
2022-08-20T13:55:19.656Z,99714.25
2022-08-20T13:57:47.867Z,99710.53
2022-08-20T14:00:21.595Z,99719.16
2022-08-20T14:02:58.773Z,99711.16
2022-08-20T14:05:25.917Z,99707.81
2022-08-20T14:07:52.888Z,99710.47
2022-08-20T14:10:25.302Z,99715.50
2022-08-20T14:12:53.387Z,99715.41
2022-08-20T14:15:20.461Z,99708.97
2022-08-20T14:17:54.956Z,99714.94
2022-08-20T14:20:29.108Z,99709.44
2022-08-20T14:22:57.361Z,99712.00
2022-08-20T14:25:26.278Z,99705.97
2022-08-20T14:27:54.638Z,99695.13
2022-08-20T14:30:30.132Z,99695.94
2022-08-20T14:32:57.351Z,99698.25
2022-08-20T14:35:24.457Z,99692.28
2022-08-20T14:37:56.473Z,99694.94
2022-08-20T14:40:25.694Z,99698.16
2022-08-20T14:42:53.689Z,99705.44
2022-08-20T14:45:21.860Z,99709.50
2022-08-20T14:47:57.728Z,99704.94
2022-08-20T14:50:30.155Z,99704.63
2022-08-20T14:52:57.976Z,99720.84
2022-08-20T14:55:30.888Z,99715.47
2022-08-20T14:57:58.533Z,99711.94
2022-08-20T15:00:30.928Z,99705.78
2022-08-20T15:02:58.622Z,99697.22
2022-08-20T15:05:26.177Z,99699.31
2022-08-20T15:07:56.868Z,99704.31
2022-08-20T15:10:28.604Z,99700.91
2022-08-20T15:12:56.029Z,99699.63
2022-08-20T15:15:24.638Z,99685.72
2022-08-20T15:17:56.654Z,99684.88
2022-08-20T15:20:28.040Z,99683.59
2022-08-20T15:22:55.538Z,99673.72
2022-08-20T15:25:26.337Z,99682.63
2022-08-20T15:27:59.649Z,99678.59
2022-08-20T15:30:30.810Z,99675.03
2022-08-20T15:32:58.257Z,99676.47
2022-08-20T15:35:28.362Z,99673.41
2022-08-20T15:37:57.084Z,99681.81
2022-08-20T15:40:28.414Z,99680.38
2022-08-20T15:42:57.728Z,99678.41
2022-08-20T15:45:25.903Z,99677.13
2022-08-20T15:48:19.538Z,99668.22
2022-08-20T15:51:13.127Z,99667.91
2022-08-20T15:54:03.701Z,99673.06
2022-08-20T15:56:58.206Z,99675.34
2022-08-20T16:00:16.740Z,99671.31
2022-08-20T16:03:34.621Z,99676.16
2022-08-20T16:06:17.940Z,99679.22
2022-08-20T16:09:03.555Z,99672.75
2022-08-20T16:12:08.369Z,99676.63
2022-08-20T16:14:42.808Z,99681.66
2022-08-20T16:17:28.869Z,99686.03
2022-08-20T16:20:03.326Z,99689.09
2022-08-20T16:22:32.118Z,99682.13
2022-08-20T16:24:59.467Z,99685.22
2022-08-20T16:28:03.132Z,99688.28
2022-08-20T16:30:43.498Z,99692.19
2022-08-20T16:33:24.699Z,99695.41
2022-08-20T16:36:23.867Z,99690.72
2022-08-20T16:39:03.643Z,99693.94
2022-08-20T16:41:50.987Z,99689.06
2022-08-20T16:44:36.249Z,99690.16
2022-08-20T16:47:21.038Z,99696.63
2022-08-20T16:50:04.187Z,99701.78
2022-08-20T16:52:31.247Z,99698.34
2022-08-20T16:54:58.783Z,99705.63
2022-08-20T16:57:29.396Z,99702.22
2022-08-20T16:59:56.320Z,99709.53
2022-08-20T17:02:24.563Z,99713.19
2022-08-20T17:04:59.122Z,99707.16
2022-08-20T17:07:46.455Z,99713.28
2022-08-20T17:10:53.162Z,99707.47
2022-08-20T17:13:27.966Z,99704.03
2022-08-20T17:16:14.062Z,99701.06
2022-08-20T17:18:47.794Z,99696.69
2022-08-20T17:21:38.034Z,99697.84
2022-08-20T17:24:30.018Z,99707.69
2022-08-20T17:27:10.625Z,99702.41
2022-08-20T17:29:55.906Z,99706.00
2022-08-20T17:32:28.020Z,99700.59
2022-08-20T17:34:58.825Z,99708.16
2022-08-20T17:37:40.839Z,99700.94
2022-08-20T17:40:16.002Z,99709.19
2022-08-20T17:43:02.795Z,99705.63
2022-08-20T17:45:42.704Z,99710.63
2022-08-20T17:48:25.163Z,99715.44
2022-08-20T17:50:54.055Z,99710.88
2022-08-20T17:53:37.258Z,99714.06
2022-08-20T17:56:37.095Z,99711.53
2022-08-20T18:00:00.139Z,99715.44
2022-08-20T18:02:17.492Z,99724.31
2022-08-20T18:04:46.871Z,99726.19
2022-08-20T18:07:23.831Z,99727.09
2022-08-20T18:10:08.400Z,99729.75
2022-08-20T18:12:53.336Z,99734.28
2022-08-20T18:15:29.535Z,99728.91
2022-08-20T18:18:17.528Z,99723.44
2022-08-20T18:21:31.359Z,99731.84
2022-08-20T18:24:10.272Z,99728.78
2022-08-20T18:26:57.890Z,99734.47
2022-08-20T18:29:38.975Z,99740.56
2022-08-20T18:32:32.621Z,99744.00
2022-08-20T18:35:12.634Z,99734.56
2022-08-20T18:37:40.496Z,99735.44
2022-08-20T18:40:26.211Z,99730.13
2022-08-20T18:42:53.581Z,99745.63
2022-08-20T18:45:35.759Z,99749.28
2022-08-20T18:48:06.014Z,99752.97
2022-08-20T18:50:39.319Z,99760.25
2022-08-20T18:53:21.897Z,99766.09
2022-08-20T18:56:13.530Z,99758.78
2022-08-20T18:59:18.072Z,99761.69
2022-08-20T19:01:49.086Z,99765.56
2022-08-20T19:04:31.867Z,99771.41
2022-08-20T19:07:05.805Z,99780.28
2022-08-20T19:10:06.844Z,99784.47
2022-08-20T19:13:14.168Z,99794.94
2022-08-20T19:15:49.762Z,99806.53
2022-08-20T19:18:32.061Z,99809.97
2022-08-20T19:21:02.915Z,99803.00
2022-08-20T19:23:40.348Z,99807.97
2022-08-20T19:26:25.701Z,99804.75
2022-08-20T19:29:07.073Z,99800.53
2022-08-20T19:31:35.505Z,99804.47
2022-08-20T19:34:22.857Z,99804.50
2022-08-20T19:37:27.995Z,99797.75
2022-08-20T19:39:58.269Z,99795.94
2022-08-20T19:42:31.825Z,99805.53
2022-08-20T19:45:10.480Z,99812.41
2022-08-20T19:47:54.745Z,99811.09
2022-08-20T19:50:55.660Z,99804.34
2022-08-20T19:53:30.507Z,99815.91
2022-08-20T19:56:10.831Z,99808.28
2022-08-20T19:58:38.391Z,99819.78
2022-08-20T20:01:16.836Z,99809.19
2022-08-20T20:04:03.359Z,99816.88
2022-08-20T20:06:36.873Z,99813.59
2022-08-20T20:09:22.048Z,99812.00
2022-08-20T20:11:55.035Z,99812.84
2022-08-20T20:14:29.256Z,99810.16
2022-08-20T20:16:57.499Z,99815.31
2022-08-20T20:19:27.502Z,99813.72
2022-08-20T20:22:20.148Z,99808.00
2022-08-20T20:25:16.694Z,99808.56
2022-08-20T20:27:51.245Z,99811.88
2022-08-20T20:30:32.372Z,99815.41
2022-08-20T20:33:18.284Z,99816.81
2022-08-20T20:35:46.512Z,99810.31
2022-08-20T20:38:26.454Z,99813.06
2022-08-20T20:40:57.880Z,99813.63
2022-08-20T20:43:43.275Z,99813.63
2022-08-20T20:46:22.475Z,99819.13
2022-08-20T20:49:10.242Z,99812.03
2022-08-20T20:51:42.413Z,99816.09
2022-08-20T20:54:45.715Z,99808.19
2022-08-20T20:57:15.456Z,99811.50
2022-08-20T20:59:42.976Z,99807.66
2022-08-20T21:02:10.398Z,99810.38
2022-08-20T21:04:41.932Z,99815.31
2022-08-20T21:07:14.802Z,99813.13
2022-08-20T21:09:42.575Z,99812.31
2022-08-20T21:12:11.976Z,99826.19
2022-08-20T21:14:39.720Z,99818.59
2022-08-20T21:17:09.742Z,99830.56
2022-08-20T21:19:45.038Z,99829.47
2022-08-20T21:22:12.813Z,99831.13
2022-08-20T21:24:39.754Z,99839.81
2022-08-20T21:27:08.613Z,99836.56
2022-08-20T21:29:39.737Z,99835.44
2022-08-20T21:32:07.258Z,99838.72
2022-08-20T21:34:39.621Z,99836.53
2022-08-20T21:37:06.610Z,99839.53
2022-08-20T21:39:33.607Z,99841.97
2022-08-20T21:42:04.578Z,99844.16
2022-08-20T21:44:49.387Z,99843.06
2022-08-20T21:47:17.626Z,99835.44
2022-08-20T21:49:44.616Z,99838.09
2022-08-20T21:52:11.604Z,99838.66
2022-08-20T21:54:38.790Z,99836.72
2022-08-20T21:57:13.146Z,99843.25
2022-08-20T21:59:41.280Z,99841.88
2022-08-20T22:02:09.131Z,99854.91
2022-08-20T22:04:36.174Z,99847.00
2022-08-20T22:07:04.508Z,99849.97
2022-08-20T22:09:32.897Z,99852.66
2022-08-20T22:12:03.929Z,99849.09
2022-08-20T22:14:31.238Z,99854.22
2022-08-20T22:16:58.337Z,99853.16
2022-08-20T22:19:25.430Z,99850.41
2022-08-20T22:21:54.563Z,99849.28
2022-08-20T22:24:23.122Z,99851.94
2022-08-20T22:26:50.080Z,99848.09
2022-08-20T22:29:17.068Z,99849.97
2022-08-20T22:31:44.760Z,99860.53
2022-08-20T22:34:14.772Z,99862.13
2022-08-20T22:36:42.161Z,99857.22
2022-08-20T22:39:10.132Z,99862.03
2022-08-20T22:41:37.480Z,99855.50
2022-08-20T22:44:04.769Z,99862.53
2022-08-20T22:46:36.993Z,99857.56
2022-08-20T22:49:07.345Z,99861.91
2022-08-20T22:51:38.814Z,99856.97
2022-08-20T22:54:10.396Z,99858.69
2022-08-20T22:56:37.719Z,99863.22
2022-08-20T22:59:05.630Z,99864.19
2022-08-20T23:01:33.106Z,99864.13
2022-08-20T23:04:14.397Z,99863.56
2022-08-20T23:06:41.914Z,99856.50
2022-08-20T23:09:08.988Z,99858.09
2022-08-20T23:11:40.121Z,99860.50
2022-08-20T23:14:07.145Z,99859.94
2022-08-20T23:16:46.116Z,99859.09
2022-08-20T23:19:21.366Z,99856.13
2022-08-20T23:21:50.137Z,99862.38
2022-08-20T23:24:18.280Z,99858.56
2022-08-20T23:26:52.424Z,99857.22
2022-08-20T23:29:25.923Z,99860.19
2022-08-20T23:31:58.247Z,99856.66
2022-08-20T23:34:26.460Z,99847.38
2022-08-20T23:36:55.410Z,99849.88
2022-08-20T23:39:23.470Z,99854.72
2022-08-20T23:41:51.235Z,99857.41
2022-08-20T23:44:25.805Z,99845.19
2022-08-20T23:47:01.875Z,99851.94
2022-08-20T23:49:30.181Z,99851.38
2022-08-20T23:51:59.950Z,99850.00
2022-08-20T23:54:32.831Z,99851.31
2022-08-20T23:56:59.852Z,99849.13
2022-08-20T23:59:26.938Z,99850.22
